sensor_id;sensor_type;location;lat;lon;timestamp;pressure;altitude;pressure_sealevel;temperature;humidity
4972;BME280;2501;51.214;6.768;2023-03-25T00:00:10;100117.44;;;8.64;90.22
4972;BME280;2501;51.214;6.768;2023-03-25T00:02:41;100122.66;;;8.66;90.72
4972;BME280;2501;51.214;6.768;2023-03-25T00:05:10;100115.69;;;8.71;90.85
4972;BME280;2501;51.214;6.768;2023-03-25T00:07:41;100107.00;;;8.72;90.89
4972;BME280;2501;51.214;6.768;2023-03-25T00:10:11;100111.34;;;8.70;90.94
4972;BME280;2501;51.214;6.768;2023-03-25T00:12:40;100109.56;;;8.66;91.52
4972;BME280;2501;51.214;6.768;2023-03-25T00:15:11;100103.50;;;8.64;91.70
4972;BME280;2501;51.214;6.768;2023-03-25T00:17:40;100100.88;;;8.67;91.27
4972;BME280;2501;51.214;6.768;2023-03-25T00:20:10;100106.13;;;8.65;91.25
4972;BME280;2501;51.214;6.768;2023-03-25T00:22:41;100100.00;;;8.68;91.31
4972;BME280;2501;51.214;6.768;2023-03-25T00:25:12;100094.81;;;8.74;90.82
4972;BME280;2501;51.214;6.768;2023-03-25T00:27:41;100101.78;;;8.75;90.77
4972;BME280;2501;51.214;6.768;2023-03-25T00:30:12;100098.31;;;8.81;90.66
4972;BME280;2501;51.214;6.768;2023-03-25T00:32:40;100099.19;;;8.80;90.14
4972;BME280;2501;51.214;6.768;2023-03-25T00:35:10;100101.81;;;8.83;90.28
4972;BME280;2501;51.214;6.768;2023-03-25T00:37:46;100101.81;;;8.87;90.02
4972;BME280;2501;51.214;6.768;2023-03-25T00:40:21;100091.34;;;8.78;89.79
4972;BME280;2501;51.214;6.768;2023-03-25T00:42:50;100093.06;;;8.79;89.95
4972;BME280;2501;51.214;6.768;2023-03-25T00:45:18;100098.31;;;8.79;89.96
4972;BME280;2501;51.214;6.768;2023-03-25T00:47:47;100095.69;;;8.84;89.92
4972;BME280;2501;51.214;6.768;2023-03-25T00:50:15;100075.63;;;8.75;89.64
4972;BME280;2501;51.214;6.768;2023-03-25T00:52:47;100088.75;;;8.83;89.38
4972;BME280;2501;51.214;6.768;2023-03-25T00:55:16;100090.47;;;8.81;89.13
4972;BME280;2501;51.214;6.768;2023-03-25T00:57:45;100086.13;;;8.90;88.63
4972;BME280;2501;51.214;6.768;2023-03-25T01:00:15;100094.84;;;8.89;87.97
4972;BME280;2501;51.214;6.768;2023-03-25T01:02:44;100096.59;;;8.92;87.69
4972;BME280;2501;51.214;6.768;2023-03-25T01:05:13;100097.44;;;8.89;87.41
4972;BME280;2501;51.214;6.768;2023-03-25T01:07:41;100094.84;;;8.95;87.42
4972;BME280;2501;51.214;6.768;2023-03-25T01:10:12;100093.09;;;8.91;86.58
4972;BME280;2501;51.214;6.768;2023-03-25T01:12:41;100093.09;;;8.91;86.19
4972;BME280;2501;51.214;6.768;2023-03-25T01:15:10;100079.19;;;8.98;85.73
4972;BME280;2501;51.214;6.768;2023-03-25T01:17:39;100085.25;;;9.03;84.19
4972;BME280;2501;51.214;6.768;2023-03-25T01:20:08;100089.63;;;9.01;84.14
4972;BME280;2501;51.214;6.768;2023-03-25T01:22:37;100085.25;;;9.03;83.46
4972;BME280;2501;51.214;6.768;2023-03-25T01:25:06;100087.00;;;9.06;82.82
4972;BME280;2501;51.214;6.768;2023-03-25T01:27:37;100077.41;;;9.05;82.18
4972;BME280;2501;51.214;6.768;2023-03-25T01:30:07;100082.66;;;9.05;82.24
4972;BME280;2501;51.214;6.768;2023-03-25T01:32:35;100081.81;;;9.11;82.01
4972;BME280;2501;51.214;6.768;2023-03-25T01:35:04;100079.16;;;9.04;81.90
4972;BME280;2501;51.214;6.768;2023-03-25T01:37:33;100087.88;;;9.06;81.37
4972;BME280;2501;51.214;6.768;2023-03-25T01:40:03;100092.25;;;9.03;81.00
4972;BME280;2501;51.214;6.768;2023-03-25T01:42:34;100081.78;;;9.04;80.71
4972;BME280;2501;51.214;6.768;2023-03-25T01:45:27;100089.63;;;8.98;81.06
4972;BME280;2501;51.214;6.768;2023-03-25T01:48:04;100077.41;;;9.05;81.38
4972;BME280;2501;51.214;6.768;2023-03-25T01:50:35;100083.53;;;8.99;81.86
4972;BME280;2501;51.214;6.768;2023-03-25T01:53:06;100079.16;;;9.04;82.06
4972;BME280;2501;51.214;6.768;2023-03-25T01:55:37;100085.28;;;9.10;81.37
4972;BME280;2501;51.214;6.768;2023-03-25T01:58:08;100077.44;;;9.10;81.63
4972;BME280;2501;51.214;6.768;2023-03-25T02:00:42;100073.94;;;8.97;81.99
4972;BME280;2501;51.214;6.768;2023-03-25T02:03:12;100077.41;;;8.94;82.37
4972;BME280;2501;51.214;6.768;2023-03-25T02:05:46;100080.94;;;8.99;82.32
4972;BME280;2501;51.214;6.768;2023-03-25T02:08:17;100078.28;;;8.95;82.01
4972;BME280;2501;51.214;6.768;2023-03-25T02:10:46;100073.94;;;9.07;81.91
4972;BME280;2501;51.214;6.768;2023-03-25T02:13:15;100066.97;;;8.96;81.62
4972;BME280;2501;51.214;6.768;2023-03-25T02:15:55;100072.19;;;9.00;81.93
4972;BME280;2501;51.214;6.768;2023-03-25T02:18:33;100070.41;;;8.84;82.08
4972;BME280;2501;51.214;6.768;2023-03-25T02:27:31;100077.38;;;8.78;83.05
4972;BME280;2501;51.214;6.768;2023-03-25T02:30:33;100070.38;;;8.67;82.78
4972;BME280;2501;51.214;6.768;2023-03-25T02:33:29;100084.38;;;8.79;82.75
4972;BME280;2501;51.214;6.768;2023-03-25T02:39:07;100073.91;;;8.80;82.62
4972;BME280;2501;51.214;6.768;2023-03-25T02:41:42;100072.09;;;8.67;82.14
4972;BME280;2501;51.214;6.768;2023-03-25T02:44:19;100079.97;;;8.70;82.43
4972;BME280;2501;51.214;6.768;2023-03-25T02:46:53;100082.59;;;8.71;82.14
4972;BME280;2501;51.214;6.768;2023-03-25T02:49:25;100079.97;;;8.64;82.70
4972;BME280;2501;51.214;6.768;2023-03-25T02:51:58;100083.44;;;8.67;83.20
4972;BME280;2501;51.214;6.768;2023-03-25T02:54:32;100084.31;;;8.62;83.27
4972;BME280;2501;51.214;6.768;2023-03-25T02:57:01;100083.44;;;8.66;83.43
4972;BME280;2501;51.214;6.768;2023-03-25T02:59:34;100080.81;;;8.60;83.63
4972;BME280;2501;51.214;6.768;2023-03-25T03:02:05;100068.66;;;8.77;83.02
4972;BME280;2501;51.214;6.768;2023-03-25T03:04:44;100063.47;;;8.82;83.21
4972;BME280;2501;51.214;6.768;2023-03-25T03:07:20;100071.25;;;8.62;83.27
4972;BME280;2501;51.214;6.768;2023-03-25T03:09:57;100065.13;;;8.58;84.01
4972;BME280;2501;51.214;6.768;2023-03-25T03:12:38;100066.91;;;8.70;83.92
4972;BME280;2501;51.214;6.768;2023-03-25T03:15:19;100058.19;;;8.62;84.09
4972;BME280;2501;51.214;6.768;2023-03-25T03:18:00;100062.53;;;8.70;84.33
4972;BME280;2501;51.214;6.768;2023-03-25T03:20:37;100061.63;;;8.56;84.44
4972;BME280;2501;51.214;6.768;2023-03-25T03:23:10;100057.31;;;8.63;84.93
4972;BME280;2501;51.214;6.768;2023-03-25T03:25:49;100061.66;;;8.64;85.38
4972;BME280;2501;51.214;6.768;2023-03-25T03:28:23;100064.28;;;8.71;84.99
4972;BME280;2501;51.214;6.768;2023-03-25T03:30:58;100059.91;;;8.61;85.28
4972;BME280;2501;51.214;6.768;2023-03-25T03:33:32;100058.19;;;8.62;85.10
4972;BME280;2501;51.214;6.768;2023-03-25T03:36:07;100063.41;;;8.60;85.49
4972;BME280;2501;51.214;6.768;2023-03-25T03:38:41;100066.94;;;8.82;84.78
4972;BME280;2501;51.214;6.768;2023-03-25T03:41:18;100059.06;;;8.75;84.17
4972;BME280;2501;51.214;6.768;2023-03-25T03:43:51;100059.97;;;8.78;84.63
4972;BME280;2501;51.214;6.768;2023-03-25T03:46:23;100069.50;;;8.59;84.86
4972;BME280;2501;51.214;6.768;2023-03-25T03:48:55;100063.38;;;8.59;85.06
4972;BME280;2501;51.214;6.768;2023-03-25T03:51:27;100070.38;;;8.64;84.44
4972;BME280;2501;51.214;6.768;2023-03-25T03:53:59;100063.38;;;8.59;85.04
4972;BME280;2501;51.214;6.768;2023-03-25T03:56:34;100068.59;;;8.51;85.45
4972;BME280;2501;51.214;6.768;2023-03-25T03:59:09;100062.53;;;8.66;86.21
4972;BME280;2501;51.214;6.768;2023-03-25T04:01:43;100072.06;;;8.46;86.24
4972;BME280;2501;51.214;6.768;2023-03-25T04:04:17;100073.78;;;8.42;86.54
4972;BME280;2501;51.214;6.768;2023-03-25T04:06:55;100065.09;;;8.46;86.75
4972;BME280;2501;51.214;6.768;2023-03-25T04:09:29;100067.69;;;8.49;86.87
4972;BME280;2501;51.214;6.768;2023-03-25T04:12:09;100066.81;;;8.43;86.56
4972;BME280;2501;51.214;6.768;2023-03-25T04:14:41;100055.53;;;8.54;86.67
4972;BME280;2501;51.214;6.768;2023-03-25T04:17:10;100058.09;;;8.41;86.57
4972;BME280;2501;51.214;6.768;2023-03-25T04:19:39;100061.63;;;8.52;86.19
4972;BME280;2501;51.214;6.768;2023-03-25T04:22:15;100053.78;;;8.52;85.75
4972;BME280;2501;51.214;6.768;2023-03-25T04:24:45;100060.75;;;8.56;84.74
4972;BME280;2501;51.214;6.768;2023-03-25T04:27:17;100071.19;;;8.44;84.36
4972;BME280;2501;51.214;6.768;2023-03-25T04:29:47;100071.22;;;8.56;83.51
4972;BME280;2501;51.214;6.768;2023-03-25T04:32:16;100059.03;;;8.58;82.75
4972;BME280;2501;51.214;6.768;2023-03-25T04:34:45;100059.88;;;8.54;82.42
4972;BME280;2501;51.214;6.768;2023-03-25T04:37:14;100054.69;;;8.67;82.42
4972;BME280;2501;51.214;6.768;2023-03-25T04:39:42;100060.81;;;8.65;81.88
4972;BME280;2501;51.214;6.768;2023-03-25T04:42:10;100068.63;;;8.62;81.60
4972;BME280;2501;51.214;6.768;2023-03-25T04:44:44;100052.94;;;8.71;81.24
4972;BME280;2501;51.214;6.768;2023-03-25T04:47:13;100061.72;;;8.88;80.70
4972;BME280;2501;51.214;6.768;2023-03-25T04:49:43;100063.41;;;8.72;79.65
4972;BME280;2501;51.214;6.768;2023-03-25T04:52:12;100069.56;;;8.91;79.27
4972;BME280;2501;51.214;6.768;2023-03-25T04:54:40;100063.44;;;8.88;78.73
4972;BME280;2501;51.214;6.768;2023-03-25T04:57:09;100059.97;;;8.81;79.12
4972;BME280;2501;51.214;6.768;2023-03-25T04:59:38;100066.06;;;8.79;78.88
4972;BME280;2501;51.214;6.768;2023-03-25T05:02:10;100058.19;;;8.71;79.45
4972;BME280;2501;51.214;6.768;2023-03-25T05:04:39;100061.69;;;8.73;80.11
4972;BME280;2501;51.214;6.768;2023-03-25T05:07:11;100058.19;;;8.65;80.35
4972;BME280;2501;51.214;6.768;2023-03-25T05:09:43;100062.50;;;8.55;81.76
4972;BME280;2501;51.214;6.768;2023-03-25T05:12:11;100067.69;;;8.49;83.01
4972;BME280;2501;51.214;6.768;2023-03-25T05:14:40;100071.19;;;8.45;83.51
4972;BME280;2501;51.214;6.768;2023-03-25T05:17:11;100064.25;;;8.55;83.33
4972;BME280;2501;51.214;6.768;2023-03-25T05:19:40;100072.13;;;8.61;82.86
4972;BME280;2501;51.214;6.768;2023-03-25T05:22:09;100080.88;;;8.80;82.99
4972;BME280;2501;51.214;6.768;2023-03-25T05:24:39;100081.72;;;8.72;83.19
4972;BME280;2501;51.214;6.768;2023-03-25T05:27:09;100083.44;;;8.58;83.67
4972;BME280;2501;51.214;6.768;2023-03-25T05:29:38;100081.63;;;8.42;84.23
4972;BME280;2501;51.214;6.768;2023-03-25T05:32:11;100086.00;;;8.54;84.70
4972;BME280;2501;51.214;6.768;2023-03-25T05:34:42;100081.66;;;8.48;85.00
4972;BME280;2501;51.214;6.768;2023-03-25T05:37:11;100085.09;;;8.40;85.00
4972;BME280;2501;51.214;6.768;2023-03-25T05:39:39;100086.00;;;8.45;84.45
4972;BME280;2501;51.214;6.768;2023-03-25T05:42:08;100085.13;;;8.46;84.67
4972;BME280;2501;51.214;6.768;2023-03-25T05:44:36;100086.91;;;8.57;84.02
4972;BME280;2501;51.214;6.768;2023-03-25T05:47:20;100077.28;;;8.50;83.87
4972;BME280;2501;51.214;6.768;2023-03-25T05:49:51;100079.03;;;8.53;83.95
4972;BME280;2501;51.214;6.768;2023-03-25T05:52:22;100070.38;;;8.66;83.64
4972;BME280;2501;51.214;6.768;2023-03-25T05:54:52;100081.66;;;8.56;83.39
4972;BME280;2501;51.214;6.768;2023-03-25T05:57:20;100079.06;;;8.59;83.70
4972;BME280;2501;51.214;6.768;2023-03-25T05:59:51;100086.03;;;8.58;83.30
4972;BME280;2501;51.214;6.768;2023-03-25T06:02:23;100086.06;;;8.72;82.47
4972;BME280;2501;51.214;6.768;2023-03-25T06:04:51;100078.22;;;8.60;82.21
4972;BME280;2501;51.214;6.768;2023-03-25T06:07:20;100087.78;;;8.67;82.55
4972;BME280;2501;51.214;6.768;2023-03-25T06:09:50;100078.22;;;8.63;82.60
4972;BME280;2501;51.214;6.768;2023-03-25T06:12:20;100087.84;;;8.79;82.95
4972;BME280;2501;51.214;6.768;2023-03-25T06:14:52;100094.75;;;8.59;83.64
4972;BME280;2501;51.214;6.768;2023-03-25T06:17:24;100093.88;;;8.57;84.10
4972;BME280;2501;51.214;6.768;2023-03-25T06:19:52;100088.66;;;8.60;85.01
4972;BME280;2501;51.214;6.768;2023-03-25T06:22:21;100083.44;;;8.63;86.11
4972;BME280;2501;51.214;6.768;2023-03-25T06:24:50;100077.34;;;8.62;85.52
4972;BME280;2501;51.214;6.768;2023-03-25T06:27:19;100086.91;;;8.59;86.04
4972;BME280;2501;51.214;6.768;2023-03-25T06:29:48;100091.22;;;8.43;87.60
4972;BME280;2501;51.214;6.768;2023-03-25T06:32:16;100094.53;;;8.12;89.68
4972;BME280;2501;51.214;6.768;2023-03-25T06:34:47;100096.19;;;8.02;91.57
4972;BME280;2501;51.214;6.768;2023-03-25T06:37:16;100096.16;;;7.99;92.67
4972;BME280;2501;51.214;6.768;2023-03-25T06:39:44;100096.25;;;8.11;93.13
4972;BME280;2501;51.214;6.768;2023-03-25T06:42:14;100105.75;;;8.00;94.61
4972;BME280;2501;51.214;6.768;2023-03-25T06:44:42;100106.63;;;7.99;95.38
4972;BME280;2501;51.214;6.768;2023-03-25T06:47:11;100108.34;;;7.92;96.06
4972;BME280;2501;51.214;6.768;2023-03-25T06:49:39;100117.97;;;8.02;96.03
4972;BME280;2501;51.214;6.768;2023-03-25T06:52:10;100112.72;;;8.01;96.40
4972;BME280;2501;51.214;6.768;2023-03-25T06:54:39;100114.47;;;8.02;96.28
4972;BME280;2501;51.214;6.768;2023-03-25T06:57:07;100116.25;;;8.06;96.20
4972;BME280;2501;51.214;6.768;2023-03-25T06:59:36;100104.97;;;8.10;95.67
4972;BME280;2501;51.214;6.768;2023-03-25T07:02:04;100112.84;;;8.19;95.63
4972;BME280;2501;51.214;6.768;2023-03-25T07:04:32;100112.84;;;8.22;94.99
4972;BME280;2501;51.214;6.768;2023-03-25T07:07:01;100110.28;;;8.31;94.23
4972;BME280;2501;51.214;6.768;2023-03-25T07:09:32;100103.38;;;8.36;93.17
4972;BME280;2501;51.214;6.768;2023-03-25T07:12:01;100110.34;;;8.37;92.80
4972;BME280;2501;51.214;6.768;2023-03-25T07:14:29;100098.22;;;8.55;92.04
4972;BME280;2501;51.214;6.768;2023-03-25T07:16:57;100108.69;;;8.56;91.30
4972;BME280;2501;51.214;6.768;2023-03-25T07:19:26;100101.75;;;8.72;90.28
4972;BME280;2501;51.214;6.768;2023-03-25T07:21:54;100100.09;;;8.95;88.34
4972;BME280;2501;51.214;6.768;2023-03-25T07:24:23;100103.59;;;9.10;86.39
4972;BME280;2501;51.214;6.768;2023-03-25T07:26:54;100098.38;;;9.13;85.32
4972;BME280;2501;51.214;6.768;2023-03-25T07:29:23;100107.03;;;8.90;85.01
4972;BME280;2501;51.214;6.768;2023-03-25T07:31:51;100112.25;;;8.84;84.80
4972;BME280;2501;51.214;6.768;2023-03-25T07:34:20;100100.97;;;9.06;82.85
4972;BME280;2501;51.214;6.768;2023-03-25T07:36:48;100112.28;;;8.92;83.05
4972;BME280;2501;51.214;6.768;2023-03-25T07:39:17;100107.97;;;9.39;81.92
4972;BME280;2501;51.214;6.768;2023-03-25T07:41:46;100121.06;;;9.29;81.71
4972;BME280;2501;51.214;6.768;2023-03-25T07:44:17;100107.97;;;9.21;80.71
4972;BME280;2501;51.214;6.768;2023-03-25T07:46:46;100120.19;;;9.43;80.35
4972;BME280;2501;51.214;6.768;2023-03-25T07:49:15;100108.81;;;9.06;82.02
4972;BME280;2501;51.214;6.768;2023-03-25T07:51:44;100104.47;;;9.15;81.92
4972;BME280;2501;51.214;6.768;2023-03-25T07:54:13;100117.59;;;9.34;80.15
4972;BME280;2501;51.214;6.768;2023-03-25T07:56:41;100124.50;;;9.05;81.68
4972;BME280;2501;51.214;6.768;2023-03-25T07:59:10;100126.31;;;9.42;79.43
4972;BME280;2501;51.214;6.768;2023-03-25T08:01:41;100126.31;;;9.35;79.99
4972;BME280;2501;51.214;6.768;2023-03-25T08:04:10;100136.72;;;9.07;80.01
4972;BME280;2501;51.214;6.768;2023-03-25T08:06:38;100135.03;;;9.40;80.08
4972;BME280;2501;51.214;6.768;2023-03-25T08:09:07;100127.16;;;9.13;80.00
4972;BME280;2501;51.214;6.768;2023-03-25T08:11:36;100131.56;;;9.65;79.00
4972;BME280;2501;51.214;6.768;2023-03-25T08:14:04;100144.63;;;9.53;78.76
4972;BME280;2501;51.214;6.768;2023-03-25T08:16:32;100139.41;;;9.85;78.31
4972;BME280;2501;51.214;6.768;2023-03-25T08:19:04;100138.53;;;9.60;78.20
4972;BME280;2501;51.214;6.768;2023-03-25T08:21:33;100145.50;;;9.43;78.74
4972;BME280;2501;51.214;6.768;2023-03-25T08:24:02;100142.00;;;9.32;78.85
4972;BME280;2501;51.214;6.768;2023-03-25T08:26:31;100149.00;;;9.59;78.42
4972;BME280;2501;51.214;6.768;2023-03-25T08:29:02;100143.75;;;9.57;78.38
4972;BME280;2501;51.214;6.768;2023-03-25T08:31:34;100153.38;;;9.86;77.07
4972;BME280;2501;51.214;6.768;2023-03-25T08:34:06;100153.38;;;9.84;77.50
4972;BME280;2501;51.214;6.768;2023-03-25T08:36:35;100147.22;;;9.53;77.59
4972;BME280;2501;51.214;6.768;2023-03-25T08:39:03;100149.81;;;10.08;76.46
4972;BME280;2501;51.214;6.768;2023-03-25T08:41:36;100148.06;;;10.33;75.68
4972;BME280;2501;51.214;6.768;2023-03-25T08:44:05;100162.94;;;9.97;76.17
4972;BME280;2501;51.214;6.768;2023-03-25T08:46:33;100149.81;;;10.11;74.59
4972;BME280;2501;51.214;6.768;2023-03-25T08:49:02;100149.81;;;10.12;74.85
4972;BME280;2501;51.214;6.768;2023-03-25T08:51:34;100160.34;;;10.19;75.71
4972;BME280;2501;51.214;6.768;2023-03-25T08:54:02;100139.38;;;10.02;73.98
4972;BME280;2501;51.214;6.768;2023-03-25T08:56:31;100141.91;;;10.48;72.12
4972;BME280;2501;51.214;6.768;2023-03-25T08:58:59;100146.28;;;10.49;72.50
4972;BME280;2501;51.214;6.768;2023-03-25T09:01:28;100143.53;;;10.76;71.77
4972;BME280;2501;51.214;6.768;2023-03-25T09:03:57;100139.13;;;10.84;70.93
4972;BME280;2501;51.214;6.768;2023-03-25T09:06:25;100147.91;;;10.75;71.40
4972;BME280;2501;51.214;6.768;2023-03-25T09:08:57;100144.28;;;11.05;70.33
4972;BME280;2501;51.214;6.768;2023-03-25T09:11:25;100140.97;;;10.64;71.04
4972;BME280;2501;51.214;6.768;2023-03-25T09:13:54;100148.78;;;10.76;70.68
4972;BME280;2501;51.214;6.768;2023-03-25T09:16:22;100149.75;;;10.51;70.44
4972;BME280;2501;51.214;6.768;2023-03-25T09:18:51;100137.53;;;10.46;71.36
4972;BME280;2501;51.214;6.768;2023-03-25T09:21:20;100147.09;;;10.60;71.23
4972;BME280;2501;51.214;6.768;2023-03-25T09:23:48;100145.28;;;10.77;70.49
4972;BME280;2501;51.214;6.768;2023-03-25T09:26:20;100142.72;;;10.60;70.26
4972;BME280;2501;51.214;6.768;2023-03-25T09:28:50;100132.22;;;10.60;69.98
4972;BME280;2501;51.214;6.768;2023-03-25T09:31:20;100136.66;;;10.44;70.89
4972;BME280;2501;51.214;6.768;2023-03-25T09:33:48;100137.47;;;10.68;70.43
4972;BME280;2501;51.214;6.768;2023-03-25T09:36:16;100137.47;;;10.69;69.38
4972;BME280;2501;51.214;6.768;2023-03-25T09:38:45;100135.72;;;10.58;70.25
4972;BME280;2501;51.214;6.768;2023-03-25T09:41:39;100152.31;;;10.72;69.45
4972;BME280;2501;51.214;6.768;2023-03-25T09:44:16;100132.22;;;10.62;68.35
4972;BME280;2501;51.214;6.768;2023-03-25T09:46:49;100136.59;;;10.58;68.70
4972;BME280;2501;51.214;6.768;2023-03-25T09:49:20;100159.25;;;10.76;68.60
4972;BME280;2501;51.214;6.768;2023-03-25T09:51:51;100140.78;;;11.00;67.36
4972;BME280;2501;51.214;6.768;2023-03-25T09:54:24;100147.00;;;10.81;67.78
4972;BME280;2501;51.214;6.768;2023-03-25T09:57:01;100138.31;;;10.71;67.63
4972;BME280;2501;51.214;6.768;2023-03-25T09:59:38;100158.38;;;10.86;68.37
4972;BME280;2501;51.214;6.768;2023-03-25T10:02:20;100135.47;;;11.12;67.23
4972;BME280;2501;51.214;6.768;2023-03-25T10:05:10;100153.94;;;10.91;66.65
4972;BME280;2501;51.214;6.768;2023-03-25T10:07:50;100161.06;;;10.69;68.11
4972;BME280;2501;51.214;6.768;2023-03-25T10:10:26;100160.03;;;10.96;67.95
4972;BME280;2501;51.214;6.768;2023-03-25T10:13:04;100162.75;;;10.86;68.05
4972;BME280;2501;51.214;6.768;2023-03-25T10:15:38;100157.34;;;11.11;68.04
4972;BME280;2501;51.214;6.768;2023-03-25T10:18:22;100159.19;;;10.91;67.53
4972;BME280;2501;51.214;6.768;2023-03-25T10:21:01;100175.34;;;11.65;66.12
4972;BME280;2501;51.214;6.768;2023-03-25T10:23:35;100169.31;;;11.58;65.26
4972;BME280;2501;51.214;6.768;2023-03-25T10:26:10;100165.75;;;11.62;64.91
4972;BME280;2501;51.214;6.768;2023-03-25T10:28:48;100161.38;;;11.61;65.44
4972;BME280;2501;51.214;6.768;2023-03-25T10:31:19;100171.38;;;11.04;67.26
4972;BME280;2501;51.214;6.768;2023-03-25T10:33:52;100166.22;;;10.89;67.82
4972;BME280;2501;51.214;6.768;2023-03-25T10:36:27;100174.81;;;11.17;68.45
4972;BME280;2501;51.214;6.768;2023-03-25T10:39:00;100174.03;;;10.95;68.89
4972;BME280;2501;51.214;6.768;2023-03-25T10:41:34;100179.00;;;11.47;67.01
4972;BME280;2501;51.214;6.768;2023-03-25T10:44:10;100155.22;;;11.64;66.44
4972;BME280;2501;51.214;6.768;2023-03-25T10:46:39;100170.19;;;11.54;65.74
4972;BME280;2501;51.214;6.768;2023-03-25T10:49:14;100181.59;;;11.51;65.30
4972;BME280;2501;51.214;6.768;2023-03-25T10:51:44;100165.06;;;11.40;65.52
4972;BME280;2501;51.214;6.768;2023-03-25T10:54:14;100166.50;;;11.81;65.23
4972;BME280;2501;51.214;6.768;2023-03-25T10:56:46;100172.31;;;12.15;64.19
4972;BME280;2501;51.214;6.768;2023-03-25T10:59:22;100164.94;;;11.52;69.00
4972;BME280;2501;51.214;6.768;2023-03-25T11:01:54;100169.34;;;11.52;69.53
4972;BME280;2501;51.214;6.768;2023-03-25T11:04:30;100156.38;;;11.26;67.90
4972;BME280;2501;51.214;6.768;2023-03-25T11:07:00;100160.66;;;11.41;67.03
4972;BME280;2501;51.214;6.768;2023-03-25T11:09:32;100152.53;;;11.73;65.40
4972;BME280;2501;51.214;6.768;2023-03-25T11:12:05;100149.53;;;12.17;64.15
4972;BME280;2501;51.214;6.768;2023-03-25T11:14:39;100159.56;;;11.68;65.44
4972;BME280;2501;51.214;6.768;2023-03-25T11:17:13;100153.44;;;11.67;66.82
4972;BME280;2501;51.214;6.768;2023-03-25T11:19:52;100158.00;;;11.45;66.21
4972;BME280;2501;51.214;6.768;2023-03-25T11:22:23;100172.72;;;11.66;67.54
4972;BME280;2501;51.214;6.768;2023-03-25T11:24:58;100160.75;;;11.27;68.72
4972;BME280;2501;51.214;6.768;2023-03-25T11:27:28;100150.41;;;11.03;68.59
4972;BME280;2501;51.214;6.768;2023-03-25T11:30:05;100170.31;;;11.40;68.49
4972;BME280;2501;51.214;6.768;2023-03-25T11:32:35;100162.38;;;11.43;70.27
4972;BME280;2501;51.214;6.768;2023-03-25T11:35:13;100160.94;;;10.95;73.58
4972;BME280;2501;51.214;6.768;2023-03-25T11:37:45;100171.44;;;10.92;72.20
4972;BME280;2501;51.214;6.768;2023-03-25T11:40:16;100173.91;;;11.24;71.02
4972;BME280;2501;51.214;6.768;2023-03-25T11:42:46;100180.91;;;11.25;68.56
4972;BME280;2501;51.214;6.768;2023-03-25T11:45:23;100192.28;;;11.24;66.89
4972;BME280;2501;51.214;6.768;2023-03-25T11:47:56;100175.34;;;11.65;66.79
4972;BME280;2501;51.214;6.768;2023-03-25T11:50:28;100180.03;;;11.22;66.19
4972;BME280;2501;51.214;6.768;2023-03-25T11:52:59;100180.91;;;11.25;66.84
4972;BME280;2501;51.214;6.768;2023-03-25T11:55:31;100197.66;;;10.95;68.62
4972;BME280;2501;51.214;6.768;2023-03-25T11:58:00;100207.34;;;10.78;71.33
4972;BME280;2501;51.214;6.768;2023-03-25T12:00:36;100224.09;;;10.28;78.56
4972;BME280;2501;51.214;6.768;2023-03-25T12:03:16;100231.94;;;9.96;82.77
4972;BME280;2501;51.214;6.768;2023-03-25T12:05:56;100235.44;;;9.97;85.17
4972;BME280;2501;51.214;6.768;2023-03-25T12:08:28;100238.91;;;9.93;86.17
4972;BME280;2501;51.214;6.768;2023-03-25T12:10:59;100224.94;;;9.94;86.00
4972;BME280;2501;51.214;6.768;2023-03-25T12:13:48;100231.06;;;9.99;86.69
4972;BME280;2501;51.214;6.768;2023-03-25T12:16:31;100229.31;;;10.01;87.09
4972;BME280;2501;51.214;6.768;2023-03-25T12:19:10;100220.56;;;10.16;88.19
4972;BME280;2501;51.214;6.768;2023-03-25T12:21:57;100214.47;;;10.10;88.37
4972;BME280;2501;51.214;6.768;2023-03-25T12:24:36;100211.84;;;9.82;90.62
4972;BME280;2501;51.214;6.768;2023-03-25T12:27:23;100202.19;;;10.54;88.24
4972;BME280;2501;51.214;6.768;2023-03-25T12:30:00;100194.16;;;10.99;84.98
4972;BME280;2501;51.214;6.768;2023-03-25T12:32:40;100187.00;;;11.26;81.98
4972;BME280;2501;51.214;6.768;2023-03-25T12:35:27;100181.91;;;11.01;81.92
4972;BME280;2501;51.214;6.768;2023-03-25T12:38:11;100171.59;;;10.53;82.48
4972;BME280;2501;51.214;6.768;2023-03-25T12:40:58;100175.84;;;10.87;81.96
4972;BME280;2501;51.214;6.768;2023-03-25T12:43:35;100168.78;;;11.03;81.11
4972;BME280;2501;51.214;6.768;2023-03-25T12:46:13;100162.75;;;10.82;80.36
4972;BME280;2501;51.214;6.768;2023-03-25T12:49:05;100172.25;;;11.05;80.30
4972;BME280;2501;51.214;6.768;2023-03-25T12:51:46;100164.22;;;11.29;77.96
4972;BME280;2501;51.214;6.768;2023-03-25T12:54:39;100172.44;;;10.64;77.61
4972;BME280;2501;51.214;6.768;2023-03-25T12:57:22;100189.78;;;10.97;77.79
4972;BME280;2501;51.214;6.768;2023-03-25T13:00:02;100198.66;;;10.65;78.14
4972;BME280;2501;51.214;6.768;2023-03-25T13:02:49;100192.63;;;10.28;83.37
4972;BME280;2501;51.214;6.768;2023-03-25T13:05:32;100226.72;;;10.04;85.91
4972;BME280;2501;51.214;6.768;2023-03-25T13:08:08;100196.13;;;9.48;90.22
4972;BME280;2501;51.214;6.768;2023-03-25T13:10:42;100191.75;;;9.47;91.86
4972;BME280;2501;51.214;6.768;2023-03-25T13:13:15;100203.91;;;9.24;91.40
4972;BME280;2501;51.214;6.768;2023-03-25T13:15:51;100217.91;;;9.33;93.97
4972;BME280;2501;51.214;6.768;2023-03-25T13:18:26;100227.44;;;9.21;94.72
4972;BME280;2501;51.214;6.768;2023-03-25T13:21:02;100230.03;;;9.08;96.64
4972;BME280;2501;51.214;6.768;2023-03-25T13:23:36;100259.50;;;8.72;97.65
4972;BME280;2501;51.214;6.768;2023-03-25T13:26:07;100260.22;;;8.46;99.98
4972;BME280;2501;51.214;6.768;2023-03-25T13:28:39;100265.84;;;7.90;100.00
4972;BME280;2501;51.214;6.768;2023-03-25T13:31:13;100252.69;;;7.78;100.00
4972;BME280;2501;51.214;6.768;2023-03-25T13:33:44;100253.84;;;8.10;100.00
4972;BME280;2501;51.214;6.768;2023-03-25T13:36:25;100259.28;;;8.36;100.00
4972;BME280;2501;51.214;6.768;2023-03-25T13:39:01;100246.22;;;8.37;100.00
4972;BME280;2501;51.214;6.768;2023-03-25T13:41:37;100242.72;;;8.37;100.00
4972;BME280;2501;51.214;6.768;2023-03-25T13:44:10;100235.06;;;8.69;100.00
4972;BME280;2501;51.214;6.768;2023-03-25T13:46:48;100213.56;;;9.46;100.00
4972;BME280;2501;51.214;6.768;2023-03-25T13:49:23;100222.31;;;10.52;100.00
4972;BME280;2501;51.214;6.768;2023-03-25T13:51:57;100217.03;;;10.62;99.82
4972;BME280;2501;51.214;6.768;2023-03-25T13:54:29;100198.34;;;11.31;95.71